Time;durP1;ratioP1;P1;durP2;ratioP2;P2;SDS_P1;SDS_P2;PMS_P1;PMS_P2;Temp;Humidity;BMP_temperature;BMP_pressure;BME280_temperature;BME280_humidity;BME280_pressure;Samples;Min_cycle;Max_cycle;Signal;HPM_P1;HPM_P2
2021/08/10 00:00:43;;;;;;;7.20;6.50;;;14.90;99.90;;;;;;5050964;28;20179;-68
2021/08/10 00:03:08;;;;;;;7.70;7.10;;;14.90;99.90;;;;;;5052331;28;20182;-69
2021/08/10 00:05:34;;;;;;;7.73;7.23;;;14.80;99.90;;;;;;5052217;28;20194;-68
2021/08/10 00:08:00;;;;;;;7.57;7.07;;;14.70;99.90;;;;;;5052609;28;20183;-68
2021/08/10 00:10:25;;;;;;;8.27;7.57;;;14.70;99.90;;;;;;5050371;28;20183;-67
2021/08/10 00:12:51;;;;;;;7.70;7.20;;;14.60;99.90;;;;;;5052284;28;20223;-68
2021/08/10 00:15:16;;;;;;;8.23;7.43;;;14.60;99.90;;;;;;5052049;28;20245;-68
2021/08/10 00:17:42;;;;;;;7.93;7.17;;;14.60;99.90;;;;;;5052594;28;20233;-68
2021/08/10 00:20:09;;;;;;;7.90;7.27;;;14.50;99.90;;;;;;5051617;28;20253;-68
2021/08/10 00:22:35;;;;;;;7.73;7.13;;;14.50;99.90;;;;;;5052447;28;20175;-69
2021/08/10 00:25:00;;;;;;;9.13;7.00;;;14.50;99.90;;;;;;5051896;28;20667;-70
2021/08/10 00:27:26;;;;;;;7.67;6.90;;;14.40;99.90;;;;;;5050866;28;20279;-68
2021/08/10 00:29:52;;;;;;;7.67;7.07;;;14.40;99.90;;;;;;5052272;28;20189;-69
2021/08/10 00:32:18;;;;;;;8.50;7.70;;;14.40;99.90;;;;;;5050641;28;20183;-67
2021/08/10 00:34:44;;;;;;;7.60;7.03;;;14.40;99.90;;;;;;5051885;28;20595;-69
2021/08/10 00:37:09;;;;;;;7.93;7.33;;;14.30;99.90;;;;;;5052323;28;20182;-68
2021/08/10 00:39:35;;;;;;;11.23;8.27;;;14.30;99.90;;;;;;5051714;28;20190;-69
2021/08/10 00:42:02;;;;;;;8.00;7.20;;;14.20;99.90;;;;;;5051965;28;20254;-68
2021/08/10 00:44:28;;;;;;;10.00;8.97;;;14.20;99.90;;;;;;5051237;28;20234;-69
2021/08/10 00:46:53;;;;;;;7.70;7.10;;;14.20;99.90;;;;;;5051587;28;20202;-68
2021/08/10 00:49:19;;;;;;;7.90;7.10;;;14.20;99.90;;;;;;5051168;28;20216;-68
2021/08/10 00:51:47;;;;;;;8.53;7.03;;;14.20;99.90;;;;;;5051643;28;20634;-68
2021/08/10 00:54:13;;;;;;;8.10;7.40;;;14.10;99.90;;;;;;5050060;28;20633;-68
2021/08/10 00:56:40;;;;;;;8.27;7.67;;;14.10;99.90;;;;;;5051728;28;20183;-70
2021/08/10 00:59:05;;;;;;;8.30;7.50;;;14.10;99.90;;;;;;5051280;28;20201;-68
2021/08/10 01:01:31;;;;;;;7.93;7.33;;;14.10;99.90;;;;;;5051423;28;20202;-69
2021/08/10 01:03:57;;;;;;;8.10;7.13;;;14.10;99.90;;;;;;5051475;28;20710;-68
2021/08/10 01:06:38;;;;;;;9.10;8.47;;;14.10;99.90;;;;;;5049849;28;20187;-69
2021/08/10 01:09:08;;;;;;;8.63;7.83;;;14.10;99.90;;;;;;5051422;28;20213;-68
2021/08/10 01:12:01;;;;;;;7.93;7.27;;;14.00;99.90;;;;;;5050495;28;20186;-68
2021/08/10 01:14:40;;;;;;;7.20;6.70;;;14.00;99.90;;;;;;5050015;28;20301;-68
2021/08/10 01:17:14;;;;;;;8.10;7.43;;;14.00;99.90;;;;;;5050624;28;20171;-67
2021/08/10 01:20:11;;;;;;;8.90;8.40;;;14.10;99.90;;;;;;5051075;28;20188;-68
2021/08/10 01:22:39;;;;;;;8.80;8.00;;;14.10;99.90;;;;;;5049914;28;20643;-69
2021/08/10 01:25:31;;;;;;;8.13;7.30;;;14.10;99.90;;;;;;5051168;28;20298;-69
2021/08/10 01:28:11;;;;;;;9.80;7.00;;;14.10;99.90;;;;;;5051194;28;20261;-68
2021/08/10 01:31:02;;;;;;;7.77;7.17;;;14.10;99.90;;;;;;5050763;28;20332;-68
2021/08/10 01:33:31;;;;;;;7.60;7.10;;;14.20;99.90;;;;;;5051017;28;20182;-68
2021/08/10 01:35:57;;;;;;;8.33;7.73;;;14.20;99.90;;;;;;5050979;28;20175;-68
2021/08/10 01:38:25;;;;;;;8.80;7.47;;;14.20;99.90;;;;;;5051015;28;20167;-68
2021/08/10 01:40:51;;;;;;;9.00;7.60;;;14.30;99.90;;;;;;5050483;28;20206;-68
2021/08/10 01:43:18;;;;;;;8.40;7.80;;;14.30;99.90;;;;;;5051116;28;20167;-68
2021/08/10 01:45:46;;;;;;;9.13;8.23;;;14.30;99.90;;;;;;5050900;28;20261;-68
2021/08/10 01:48:13;;;;;;;10.27;8.47;;;14.40;99.90;;;;;;5050836;28;20167;-69
2021/08/10 01:50:39;;;;;;;8.60;8.00;;;14.40;99.90;;;;;;5050430;28;20175;-68
2021/08/10 01:53:07;;;;;;;7.27;6.67;;;14.50;99.90;;;;;;5050742;28;20629;-68
2021/08/10 01:55:34;;;;;;;7.63;7.03;;;14.50;99.90;;;;;;5049262;28;20207;-68
2021/08/10 01:58:01;;;;;;;7.77;7.20;;;14.50;99.90;;;;;;5050755;28;20197;-69
2021/08/10 02:00:27;;;;;;;8.87;8.13;;;14.60;99.90;;;;;;5050784;28;20216;-67
2021/08/10 02:02:53;;;;;;;9.80;7.50;;;14.60;99.90;;;;;;5049057;28;20179;-69
2021/08/10 02:05:21;;;;;;;8.57;7.87;;;14.60;99.90;;;;;;5049782;28;20414;-68
2021/08/10 02:07:47;;;;;;;7.93;7.33;;;14.60;99.90;;;;;;5054625;28;20258;-67
2021/08/10 02:10:13;;;;;;;7.80;7.13;;;14.60;99.90;;;;;;5053834;28;20186;-68
2021/08/10 02:12:40;;;;;;;7.17;6.60;;;14.70;99.90;;;;;;5054480;28;20179;-68
2021/08/10 02:15:06;;;;;;;9.70;8.80;;;14.60;99.90;;;;;;5054021;28;20214;-69
2021/08/10 02:17:31;;;;;;;9.70;8.93;;;14.60;99.90;;;;;;5054323;28;20680;-69
2021/08/10 02:19:57;;;;;;;8.70;7.90;;;14.70;99.90;;;;;;5054025;28;20254;-67
2021/08/10 02:22:23;;;;;;;9.33;8.67;;;14.70;99.90;;;;;;5053954;28;20570;-68
2021/08/10 02:24:59;;;;;;;9.50;8.70;;;14.70;99.90;;;;;;5053978;28;20297;-69
2021/08/10 02:27:35;;;;;;;8.90;8.03;;;14.70;99.90;;;;;;5054244;28;20240;-68
2021/08/10 02:30:11;;;;;;;8.50;7.90;;;14.60;99.90;;;;;;5053616;28;20705;-69
2021/08/10 02:32:38;;;;;;;10.20;7.13;;;14.70;99.90;;;;;;5053992;28;20511;-69
2021/08/10 02:35:06;;;;;;;8.03;7.23;;;14.60;99.90;;;;;;5053511;28;20210;-70
2021/08/10 02:37:34;;;;;;;8.10;7.50;;;14.80;99.90;;;;;;5053955;28;20306;-68
2021/08/10 02:40:04;;;;;;;8.33;7.43;;;14.80;99.90;;;;;;5053644;28;20644;-68
2021/08/10 02:42:31;;;;;;;8.23;7.53;;;14.80;99.90;;;;;;5054677;28;20186;-69
2021/08/10 02:44:59;;;;;;;8.83;7.30;;;14.80;99.90;;;;;;5053208;28;20195;-69
2021/08/10 02:47:27;;;;;;;8.40;7.60;;;14.80;99.90;;;;;;5053650;28;20293;-69
2021/08/10 02:49:53;;;;;;;7.63;6.93;;;14.80;99.90;;;;;;5053050;28;20182;-69
2021/08/10 02:52:18;;;;;;;8.27;7.57;;;14.80;99.90;;;;;;5054525;28;20185;-69
2021/08/10 02:54:44;;;;;;;8.53;7.60;;;15.00;99.90;;;;;;5053855;28;20217;-70
2021/08/10 02:57:20;;;;;;;8.07;7.57;;;14.90;99.90;;;;;;5054531;28;20167;-70
2021/08/10 03:00:06;;;;;;;7.17;6.67;;;15.00;99.90;;;;;;5053248;28;20203;-69
2021/08/10 03:02:48;;;;;;;8.83;8.23;;;15.00;99.90;;;;;;5036207;28;20670;-68
2021/08/10 03:05:20;;;;;;;8.77;8.10;;;15.00;99.90;;;;;;5053501;28;20275;-69
2021/08/10 03:07:56;;;;;;;9.30;8.50;;;14.90;99.90;;;;;;5053630;28;20167;-69
2021/08/10 03:10:24;;;;;;;10.70;8.80;;;14.80;99.90;;;;;;5053106;28;20174;-69
2021/08/10 03:12:51;;;;;;;10.10;8.17;;;14.90;99.90;;;;;;5053394;28;20194;-68
2021/08/10 03:15:26;;;;;;;9.57;8.87;;;14.90;99.90;;;;;;5053278;28;20203;-68
2021/08/10 03:17:56;;;;;;;9.37;8.57;;;14.90;99.90;;;;;;5052666;28;20198;-69
2021/08/10 03:20:23;;;;;;;8.57;7.77;;;14.90;99.90;;;;;;5052596;28;20206;-69
2021/08/10 03:22:49;;;;;;;8.50;7.57;;;14.80;99.90;;;;;;5052892;28;20587;-70
2021/08/10 03:25:19;;;;;;;9.47;8.77;;;14.80;99.90;;;;;;5052764;28;20190;-68
2021/08/10 03:27:46;;;;;;;9.13;8.40;;;14.80;99.90;;;;;;5052987;28;20205;-70
2021/08/10 03:30:13;;;;;;;18.07;16.73;;;14.90;99.90;;;;;;5052798;28;20539;-69
2021/08/10 03:32:39;;;;;;;10.47;9.47;;;14.90;99.90;;;;;;5053432;28;20175;-70
2021/08/10 03:35:06;;;;;;;10.67;9.87;;;14.90;99.90;;;;;;5052855;28;20515;-69
2021/08/10 03:37:32;;;;;;;10.60;9.77;;;14.80;99.90;;;;;;5053415;28;20179;-69
2021/08/10 03:40:00;;;;;;;8.47;7.87;;;14.70;99.90;;;;;;5051696;28;20229;-70
2021/08/10 03:42:26;;;;;;;8.50;7.70;;;14.70;99.90;;;;;;5053311;28;20167;-68
2021/08/10 03:44:53;;;;;;;8.57;7.87;;;14.80;99.90;;;;;;5053116;28;20201;-69
2021/08/10 03:47:19;;;;;;;11.50;7.87;;;14.80;99.90;;;;;;5053287;28;20163;-69
2021/08/10 03:49:47;;;;;;;8.30;7.67;;;14.70;99.90;;;;;;5052834;28;20175;-69
2021/08/10 03:52:14;;;;;;;8.83;8.07;;;14.70;99.90;;;;;;5052907;28;20717;-69
2021/08/10 03:54:41;;;;;;;8.43;7.83;;;14.70;99.90;;;;;;5052334;28;20723;-68
2021/08/10 03:57:10;;;;;;;8.67;7.97;;;14.70;99.90;;;;;;5051185;28;20166;-68
2021/08/10 03:59:36;;;;;;;8.87;8.07;;;14.70;99.90;;;;;;5051631;28;20162;-68
2021/08/10 04:02:03;;;;;;;8.30;7.60;;;14.80;99.90;;;;;;5051317;28;20166;-68
2021/08/10 04:04:29;;;;;;;8.10;7.00;;;14.80;99.90;;;;;;5051242;28;20587;-68
2021/08/10 04:06:56;;;;;;;8.13;7.33;;;14.90;99.90;;;;;;5051625;28;20167;-68
2021/08/10 04:09:22;;;;;;;9.37;8.57;;;14.90;99.90;;;;;;5050944;28;20178;-68
2021/08/10 04:11:48;;;;;;;10.00;9.30;;;14.90;99.90;;;;;;5051268;28;20185;-68
2021/08/10 04:14:14;;;;;;;12.20;11.47;;;14.90;99.90;;;;;;5051485;28;20567;-68
2021/08/10 04:17:04;;;;;;;12.83;11.47;;;14.90;99.90;;;;;;5050981;28;20228;-68
2021/08/10 04:19:32;;;;;;;8.63;7.83;;;15.00;99.90;;;;;;5051104;28;20181;-68
2021/08/10 04:21:58;;;;;;;9.77;8.97;;;15.00;99.90;;;;;;5050962;28;20558;-68
2021/08/10 04:24:24;;;;;;;12.60;11.70;;;15.00;99.90;;;;;;5050641;28;20206;-68
2021/08/10 04:26:49;;;;;;;12.97;11.93;;;14.90;99.90;;;;;;5049988;28;20181;-68
2021/08/10 04:29:15;;;;;;;9.17;8.47;;;14.70;99.90;;;;;;5050581;28;20167;-68
2021/08/10 04:31:41;;;;;;;7.63;7.03;;;14.70;99.90;;;;;;5051050;28;20174;-68
2021/08/10 04:34:07;;;;;;;8.87;7.97;;;14.60;99.90;;;;;;5050856;28;20300;-68
2021/08/10 04:36:33;;;;;;;9.03;8.23;;;14.60;99.90;;;;;;5050285;28;20270;-68
2021/08/10 04:38:59;;;;;;;10.23;9.53;;;14.60;99.90;;;;;;5051141;28;20516;-68
2021/08/10 04:41:25;;;;;;;12.83;11.10;;;14.60;99.90;;;;;;5050351;28;20170;-68
2021/08/10 04:43:52;;;;;;;11.17;10.17;;;14.70;99.90;;;;;;5050899;28;20544;-68
2021/08/10 04:46:19;;;;;;;10.87;10.03;;;14.60;99.90;;;;;;5050618;28;20186;-68
2021/08/10 04:48:45;;;;;;;8.93;8.13;;;14.60;99.90;;;;;;5050793;28;20179;-68
2021/08/10 04:51:12;;;;;;;10.27;9.40;;;14.60;99.90;;;;;;5050349;28;20587;-67
2021/08/10 04:53:38;;;;;;;15.83;14.33;;;14.60;99.90;;;;;;5010488;28;1106204;-68
2021/08/10 04:56:04;;;;;;;14.67;13.67;;;14.60;99.90;;;;;;5051582;28;20167;-68
2021/08/10 04:58:30;;;;;;;10.40;9.53;;;14.60;99.90;;;;;;5049897;28;20532;-68
2021/08/10 05:00:56;;;;;;;9.57;8.77;;;14.60;99.90;;;;;;5051207;28;20163;-68
2021/08/10 05:03:21;;;;;;;10.17;9.13;;;14.60;99.90;;;;;;5050984;28;20648;-68
2021/08/10 05:05:48;;;;;;;13.17;9.50;;;14.60;99.90;;;;;;5050834;28;20175;-68
2021/08/10 05:08:17;;;;;;;15.67;9.80;;;14.60;99.90;;;;;;5050223;28;20181;-67
2021/08/10 05:10:43;;;;;;;17.27;9.80;;;14.60;99.90;;;;;;5051116;28;20198;-68
2021/08/10 05:13:09;;;;;;;10.37;9.33;;;14.70;99.90;;;;;;5051417;28;20183;-68
2021/08/10 05:15:38;;;;;;;10.47;9.27;;;14.70;99.90;;;;;;5051332;28;20206;-67
2021/08/10 05:18:03;;;;;;;10.13;8.83;;;14.70;99.90;;;;;;5049791;28;20640;-68
2021/08/10 05:20:29;;;;;;;12.57;9.23;;;14.80;99.90;;;;;;5050914;28;20220;-68
2021/08/10 05:22:55;;;;;;;12.50;8.90;;;14.80;99.90;;;;;;5052196;28;20171;-68
2021/08/10 05:25:21;;;;;;;11.47;10.50;;;14.90;99.90;;;;;;5051353;28;20285;-69
2021/08/10 05:27:47;;;;;;;11.73;10.77;;;14.90;99.90;;;;;;5051255;28;20235;-68
2021/08/10 05:30:13;;;;;;;8.73;8.03;;;15.00;99.90;;;;;;5052035;28;20253;-68
2021/08/10 05:32:40;;;;;;;11.10;10.30;;;14.90;99.90;;;;;;5052061;28;20175;-68
2021/08/10 05:35:06;;;;;;;11.90;10.97;;;15.00;99.90;;;;;;5052778;28;20578;-68
2021/08/10 05:37:32;;;;;;;11.40;10.57;;;15.10;99.90;;;;;;5051028;28;20178;-68
2021/08/10 05:39:58;;;;;;;10.13;9.23;;;15.10;99.90;;;;;;5032300;28;20175;-68
2021/08/10 05:42:24;;;;;;;13.37;12.07;;;15.20;99.90;;;;;;5045261;28;20178;-68
2021/08/10 05:44:50;;;;;;;12.67;9.80;;;15.20;99.90;;;;;;5055923;28;20186;-68
2021/08/10 05:47:15;;;;;;;10.93;9.83;;;15.30;99.90;;;;;;5054875;28;20240;-68
2021/08/10 05:49:41;;;;;;;9.20;8.40;;;15.40;99.90;;;;;;5054873;28;20253;-68
2021/08/10 05:52:08;;;;;;;10.30;9.27;;;15.40;99.90;;;;;;5054112;28;20182;-68
2021/08/10 05:54:35;;;;;;;9.87;8.83;;;15.50;99.90;;;;;;5055983;28;20272;-68
2021/08/10 05:57:01;;;;;;;10.17;8.97;;;15.50;99.90;;;;;;5056320;28;20171;-68
2021/08/10 05:59:27;;;;;;;12.60;9.37;;;15.50;99.90;;;;;;5055225;28;20171;-68
2021/08/10 06:01:53;;;;;;;10.10;9.13;;;15.60;99.90;;;;;;5055673;28;20170;-72
2021/08/10 06:04:18;;;;;;;32.93;31.03;;;15.60;99.90;;;;;;5056248;28;20218;-68
2021/08/10 06:06:44;;;;;;;15.27;13.93;;;15.80;99.90;;;;;;5054851;28;20214;-68
2021/08/10 06:09:09;;;;;;;15.63;14.13;;;16.00;99.90;;;;;;5051004;28;20167;-68
2021/08/10 06:11:36;;;;;;;15.73;9.43;;;16.40;99.90;;;;;;5043854;28;20548;-68
2021/08/10 06:14:02;;;;;;;11.47;10.27;;;16.60;99.90;;;;;;5053861;28;20668;-68
2021/08/10 06:16:28;;;;;;;12.33;9.93;;;16.80;99.90;;;;;;5054141;28;20171;-68
2021/08/10 06:18:53;;;;;;;12.27;11.07;;;16.80;99.90;;;;;;5054461;28;20173;-68
2021/08/10 06:21:20;;;;;;;12.57;11.30;;;16.90;99.90;;;;;;5053892;28;20253;-69
2021/08/10 06:23:45;;;;;;;10.93;9.93;;;17.10;99.90;;;;;;5054022;28;20613;-68
2021/08/10 06:26:11;;;;;;;9.77;8.97;;;17.30;99.90;;;;;;5054338;28;20216;-68
2021/08/10 06:28:37;;;;;;;9.97;9.17;;;17.50;99.90;;;;;;5053851;28;20171;-68
2021/08/10 06:31:03;;;;;;;13.20;9.43;;;17.80;99.90;;;;;;5053865;28;20175;-68
2021/08/10 06:33:29;;;;;;;9.13;8.30;;;17.90;99.90;;;;;;5052259;28;20265;-68
2021/08/10 06:35:55;;;;;;;9.27;8.20;;;18.10;99.90;;;;;;5053431;28;20262;-68
2021/08/10 06:38:21;;;;;;;8.07;7.47;;;18.30;99.90;;;;;;5053584;28;20258;-68
2021/08/10 06:40:46;;;;;;;8.90;8.07;;;18.50;99.90;;;;;;5053508;28;20179;-68
2021/08/10 06:43:12;;;;;;;7.60;7.10;;;18.80;99.90;;;;;;5053456;28;20171;-68
2021/08/10 06:45:38;;;;;;;7.73;7.10;;;18.90;99.90;;;;;;5053833;28;20195;-68
2021/08/10 06:48:04;;;;;;;8.43;6.90;;;19.10;99.90;;;;;;5052141;28;20178;-68
2021/08/10 06:50:29;;;;;;;8.37;7.60;;;19.20;99.90;;;;;;5053322;28;20554;-68
2021/08/10 06:52:55;;;;;;;7.10;6.60;;;19.30;99.90;;;;;;5052406;28;20525;-68
2021/08/10 06:55:21;;;;;;;8.03;7.33;;;19.50;99.90;;;;;;5053267;28;20701;-68
2021/08/10 06:57:47;;;;;;;7.53;7.03;;;19.80;99.90;;;;;;5053408;28;20549;-67
2021/08/10 07:00:13;;;;;;;7.37;6.73;;;20.10;99.90;;;;;;5052964;28;20220;-67
2021/08/10 07:02:39;;;;;;;7.87;7.17;;;20.30;99.90;;;;;;5053481;28;20628;-68
2021/08/10 07:05:05;;;;;;;9.93;7.50;;;20.50;99.90;;;;;;5053527;28;20198;-68
2021/08/10 07:07:31;;;;;;;7.70;7.00;;;20.70;99.90;;;;;;5053654;28;20183;-68
2021/08/10 07:09:56;;;;;;;6.30;5.80;;;21.10;99.90;;;;;;5052915;28;20183;-67
2021/08/10 07:12:22;;;;;;;5.78;5.38;;;21.30;99.90;;;;;;5053340;28;20190;-69
2021/08/10 07:14:48;;;;;;;6.30;5.77;;;21.50;99.90;;;;;;5052157;28;20213;-67
2021/08/10 07:17:13;;;;;;;5.10;4.80;;;21.80;99.90;;;;;;5052774;28;20240;-68
2021/08/10 07:19:39;;;;;;;5.30;5.00;;;22.00;99.90;;;;;;5052862;28;20644;-68
2021/08/10 07:22:04;;;;;;;6.80;6.35;;;22.10;99.90;;;;;;5053057;28;20171;-68
2021/08/10 07:24:30;;;;;;;6.30;5.80;;;22.30;99.90;;;;;;5052710;28;20201;-68
2021/08/10 07:26:56;;;;;;;6.03;5.53;;;22.80;99.90;;;;;;5053000;28;20178;-68
2021/08/10 07:29:22;;;;;;;6.13;5.63;;;23.10;99.90;;;;;;5052499;28;20189;-68
2021/08/10 07:31:48;;;;;;;6.07;5.55;;;22.80;99.90;;;;;;5053219;28;20204;-67
2021/08/10 07:34:14;;;;;;;6.35;5.85;;;22.60;99.90;;;;;;5052429;28;20203;-67
2021/08/10 07:36:39;;;;;;;6.05;5.38;;;22.70;99.90;;;;;;5052731;28;20167;-68
2021/08/10 07:39:05;;;;;;;6.15;5.10;;;23.00;99.90;;;;;;5052407;28;20179;-67
2021/08/10 07:41:32;;;;;;;5.70;5.28;;;23.60;99.90;;;;;;5052465;28;20174;-67
2021/08/10 07:43:58;;;;;;;5.50;5.10;;;23.80;99.90;;;;;;5052564;28;20285;-67
2021/08/10 07:46:23;;;;;;;5.45;5.10;;;23.90;99.90;;;;;;5052541;28;20171;-67
2021/08/10 07:48:50;;;;;;;5.60;5.20;;;23.90;99.90;;;;;;5052180;28;20197;-67
2021/08/10 07:51:17;;;;;;;5.60;5.20;;;23.70;99.90;;;;;;5051601;28;20253;-67
2021/08/10 07:53:43;;;;;;;5.90;5.40;;;23.40;99.90;;;;;;5051864;28;20465;-67
2021/08/10 07:56:11;;;;;;;7.82;5.63;;;23.10;99.90;;;;;;5051014;28;20179;-67
2021/08/10 07:58:36;;;;;;;6.57;5.45;;;22.80;99.90;;;;;;5052052;28;20163;-67
2021/08/10 08:01:04;;;;;;;5.50;5.07;;;22.60;99.90;;;;;;5051572;28;20186;-68
2021/08/10 08:03:29;;;;;;;5.93;5.10;;;22.50;99.90;;;;;;5051637;28;20167;-67
2021/08/10 08:05:56;;;;;;;7.25;5.43;;;22.30;99.90;;;;;;5050960;28;20194;-67
2021/08/10 08:08:22;;;;;;;6.80;6.38;;;22.20;99.90;;;;;;5051926;28;20537;-67
2021/08/10 08:10:48;;;;;;;7.37;6.87;;;21.90;99.90;;;;;;5051511;28;20633;-67
2021/08/10 08:13:13;;;;;;;6.93;6.33;;;21.70;99.90;;;;;;5052105;28;20182;-66
2021/08/10 08:15:39;;;;;;;6.03;5.67;;;21.70;99.90;;;;;;5051660;28;20297;-67
2021/08/10 08:18:05;;;;;;;5.97;5.55;;;21.70;99.90;;;;;;5051943;28;20178;-67
2021/08/10 08:20:30;;;;;;;6.15;5.60;;;21.80;99.90;;;;;;5051642;28;20214;-67
2021/08/10 08:22:56;;;;;;;6.40;5.20;;;21.90;99.90;;;;;;5051705;28;20178;-67
2021/08/10 08:25:22;;;;;;;5.87;5.33;;;21.90;99.90;;;;;;5051470;28;20202;-66
2021/08/10 08:27:48;;;;;;;7.13;5.57;;;22.00;99.90;;;;;;5052179;28;20236;-67
2021/08/10 08:30:14;;;;;;;5.68;5.15;;;21.90;99.90;;;;;;5051153;28;20228;-66
2021/08/10 08:32:40;;;;;;;6.22;5.68;;;22.30;99.90;;;;;;5051415;28;20190;-67
2021/08/10 08:35:06;;;;;;;6.00;5.50;;;22.80;99.90;;;;;;5051550;28;20203;-66
2021/08/10 08:37:32;;;;;;;5.63;5.32;;;23.10;99.90;;;;;;5051588;28;20179;-67
2021/08/10 08:39:58;;;;;;;5.72;5.32;;;23.40;99.90;;;;;;5051541;28;20259;-66
2021/08/10 08:42:23;;;;;;;6.55;5.88;;;23.50;99.90;;;;;;5050193;28;20263;-67
2021/08/10 08:44:49;;;;;;;5.85;5.45;;;23.70;99.90;;;;;;5051309;28;20664;-67
2021/08/10 08:47:20;;;;;;;5.90;5.50;;;23.70;99.90;;;;;;5051189;28;20178;-67
2021/08/10 08:49:48;;;;;;;5.40;4.90;;;23.50;99.90;;;;;;5051345;28;20199;-67
2021/08/10 08:52:16;;;;;;;5.50;5.20;;;23.10;99.90;;;;;;5051234;28;20220;-67
2021/08/10 08:54:42;;;;;;;6.55;6.05;;;22.70;99.90;;;;;;5051290;28;20245;-66
2021/08/10 08:57:09;;;;;;;7.68;5.15;;;22.40;99.90;;;;;;5051140;28;20163;-67
2021/08/10 08:59:39;;;;;;;5.75;5.30;;;22.10;99.90;;;;;;5051235;28;20167;-67
2021/08/10 09:02:04;;;;;;;5.82;5.32;;;22.00;99.90;;;;;;5051349;28;20249;-66
2021/08/10 09:04:30;;;;;;;6.20;5.80;;;21.90;99.90;;;;;;5051022;28;20364;-66
2021/08/10 09:06:56;;;;;;;6.63;6.13;;;21.80;99.90;;;;;;5051108;28;20177;-67
2021/08/10 09:09:30;;;;;;;7.30;6.67;;;21.30;99.90;;;;;;5050828;28;20179;-67
2021/08/10 09:11:57;;;;;;;8.07;7.33;;;21.20;99.90;;;;;;5051531;28;20737;-67
2021/08/10 09:14:24;;;;;;;7.23;6.73;;;21.30;99.90;;;;;;5050823;28;20198;-67
2021/08/10 09:17:12;;;;;;;6.50;6.10;;;21.50;99.90;;;;;;5054070;28;20220;-67
2021/08/10 09:19:41;;;;;;;6.97;6.40;;;21.60;99.90;;;;;;5055031;28;20182;-67
2021/08/10 09:22:17;;;;;;;7.27;6.77;;;21.70;99.90;;;;;;5055173;28;20211;-67
2021/08/10 09:24:50;;;;;;;7.50;7.00;;;21.20;99.90;;;;;;5055768;28;20194;-66
2021/08/10 09:27:26;;;;;;;7.07;6.53;;;20.90;99.90;;;;;;5055444;28;20644;-67
2021/08/10 09:29:52;;;;;;;7.63;7.07;;;20.90;99.90;;;;;;5055770;28;20174;-67
2021/08/10 09:32:18;;;;;;;7.78;7.22;;;21.00;99.90;;;;;;5054838;28;20171;-66
2021/08/10 09:34:44;;;;;;;7.35;6.88;;;21.40;99.90;;;;;;5054775;28;20213;-67
2021/08/10 09:37:16;;;;;;;6.10;5.70;;;21.60;99.90;;;;;;5055064;28;20519;-66
2021/08/10 09:39:43;;;;;;;7.07;6.37;;;21.60;99.90;;;;;;5054786;28;20565;-67
2021/08/10 09:42:12;;;;;;;7.07;6.47;;;21.50;99.90;;;;;;5055010;28;20174;-66
2021/08/10 09:44:57;;;;;;;6.53;6.03;;;21.60;99.90;;;;;;5054743;28;20559;-66
2021/08/10 09:47:39;;;;;;;5.90;5.40;;;21.90;99.90;;;;;;5054508;28;20666;-66
2021/08/10 09:50:26;;;;;;;6.30;5.90;;;22.20;99.90;;;;;;5054287;28;20190;-66
2021/08/10 09:52:52;;;;;;;5.47;5.00;;;22.70;99.90;;;;;;5054573;28;20704;-66
2021/08/10 09:55:19;;;;;;;5.68;5.20;;;23.30;99.90;;;;;;5048606;22;20704;-67
2021/08/10 09:58:02;;;;;;;5.57;5.07;;;24.00;99.90;;;;;;5033038;28;20498;-67
2021/08/10 10:00:39;;;;;;;5.68;5.18;;;24.80;99.90;;;;;;5034509;28;20168;-67
2021/08/10 10:03:25;;;;;;;5.30;5.00;;;25.10;99.90;;;;;;5035025;28;20554;-66
2021/08/10 10:05:52;;;;;;;5.80;5.30;;;25.00;99.90;;;;;;5034607;28;20211;-66
2021/08/10 10:08:21;;;;;;;5.85;5.55;;;24.80;99.90;;;;;;5034825;28;20171;-67
2021/08/10 10:10:47;;;;;;;6.60;6.20;;;24.80;99.90;;;;;;5033582;28;20168;-67
2021/08/10 10:13:17;;;;;;;6.00;5.60;;;24.80;99.90;;;;;;5034389;28;20179;-68
2021/08/10 10:15:43;;;;;;;5.50;5.20;;;24.40;99.90;;;;;;5034408;28;20203;-67
2021/08/10 10:18:11;;;;;;;5.80;5.40;;;24.60;99.90;;;;;;5034296;28;20656;-68
2021/08/10 10:20:41;;;;;;;5.78;5.38;;;24.50;99.90;;;;;;5034222;28;20450;-67
2021/08/10 10:23:09;;;;;;;5.55;5.15;;;24.40;99.90;;;;;;5034465;28;20163;-67
2021/08/10 10:25:35;;;;;;;6.47;5.90;;;24.40;99.90;;;;;;5033119;28;20199;-65
2021/08/10 10:28:01;;;;;;;5.53;5.22;;;24.30;99.90;;;;;;5034055;28;20183;-67
2021/08/10 10:30:28;;;;;;;7.90;7.20;;;24.20;99.90;;;;;;5033750;28;20172;-66
2021/08/10 10:32:54;;;;;;;6.18;5.60;;;24.10;99.90;;;;;;5034000;28;20583;-67
2021/08/10 10:35:20;;;;;;;11.27;5.95;;;23.70;99.90;;;;;;5033884;28;20253;-67
2021/08/10 10:37:48;;;;;;;5.25;4.88;;;23.70;99.90;;;;;;5034104;28;20203;-67
2021/08/10 10:40:18;;;;;;;5.38;4.88;;;24.10;99.90;;;;;;5033719;28;20258;-67
2021/08/10 10:42:46;;;;;;;6.88;5.28;;;24.70;99.90;;;;;;5033431;28;20168;-70
2021/08/10 10:45:53;;;;;;;5.30;4.90;;;25.20;99.90;;;;;;5033001;28;20564;-67
2021/08/10 10:48:27;;;;;;;5.70;5.30;;;25.60;99.90;;;;;;4986972;28;20184;-67
2021/08/10 10:51:11;;;;;;;5.82;5.38;;;24.90;99.90;;;;;;4991707;28;20184;-67
2021/08/10 10:53:38;;;;;;;11.70;6.85;;;24.10;99.90;;;;;;5019118;28;20286;-67
2021/08/10 10:56:24;;;;;;;7.03;6.22;;;23.70;99.90;;;;;;5033843;28;20647;-67
2021/08/10 10:58:50;;;;;;;6.95;6.35;;;23.40;99.90;;;;;;5025461;28;20176;-67
2021/08/10 11:01:15;;;;;;;10.05;5.90;;;23.40;99.90;;;;;;5032309;28;20221;-68
2021/08/10 11:04:01;;;;;;;12.70;6.28;;;23.50;99.90;;;;;;5032358;28;20179;-67
2021/08/10 11:06:40;;;;;;;7.85;5.82;;;23.20;99.90;;;;;;5032671;28;20183;-69
2021/08/10 11:09:06;;;;;;;8.07;6.55;;;22.90;99.90;;;;;;5031784;28;20172;-67
2021/08/10 11:11:48;;;;;;;6.40;5.88;;;23.00;99.90;;;;;;5032944;28;20175;-66
2021/08/10 11:14:35;;;;;;;5.82;5.43;;;23.50;99.90;;;;;;5033158;28;20256;-66
2021/08/10 11:17:07;;;;;;;5.80;5.40;;;24.10;99.90;;;;;;5032806;28;20183;-68
2021/08/10 11:19:33;;;;;;;6.13;5.60;;;24.60;99.90;;;;;;5032626;28;20688;-67
2021/08/10 11:22:14;;;;;;;6.20;5.80;;;24.80;99.90;;;;;;5033115;28;20185;-67
2021/08/10 11:24:41;;;;;;;5.75;5.25;;;25.30;99.90;;;;;;5032744;28;20298;-68
2021/08/10 11:27:27;;;;;;;5.22;4.82;;;25.80;99.90;;;;;;5032543;28;20179;-66
2021/08/10 11:29:53;;;;;;;5.78;5.47;;;26.10;99.90;;;;;;5025587;28;20584;-67
2021/08/10 11:32:38;;;;;;;5.38;5.07;;;26.20;99.90;;;;;;5031394;28;20175;-67
2021/08/10 11:35:40;;;;;;;5.63;5.22;;;26.60;99.90;;;;;;5032579;28;20524;-67
2021/08/10 11:38:06;;;;;;;5.32;4.93;;;26.50;99.90;;;;;;5032090;28;20171;-68
2021/08/10 11:40:51;;;;;;;5.07;4.63;;;26.60;99.90;;;;;;5032464;28;20234;-69
2021/08/10 11:43:18;;;;;;;5.10;4.70;;;26.90;99.90;;;;;;5032448;28;20176;-66
2021/08/10 11:45:43;;;;;;;4.72;4.38;;;26.70;99.90;;;;;;5032747;28;20197;-67
2021/08/10 11:48:09;;;;;;;5.75;4.85;;;26.80;99.90;;;;;;5032327;28;20180;-67
2021/08/10 11:50:35;;;;;;;6.20;5.80;;;27.20;99.90;;;;;;5032723;28;20258;-67
2021/08/10 11:53:03;;;;;;;4.95;4.65;;;27.00;99.90;;;;;;5031848;28;20657;-66
2021/08/10 11:55:34;;;;;;;5.03;4.72;;;26.80;99.90;;;;;;5030961;28;20206;-67
2021/08/10 11:58:02;;;;;;;5.03;4.68;;;26.50;99.90;;;;;;5030120;28;20250;-67
2021/08/10 12:00:30;;;;;;;5.10;4.70;;;26.40;99.90;;;;;;5031067;28;20253;-67
2021/08/10 12:02:56;;;;;;;5.88;5.47;;;26.60;99.90;;;;;;5032740;28;20191;-67
2021/08/10 12:05:22;;;;;;;5.15;4.80;;;26.50;99.90;;;;;;5030468;28;20207;-67
2021/08/10 12:07:52;;;;;;;5.88;5.38;;;26.00;99.90;;;;;;5030339;28;20179;-66
2021/08/10 12:10:26;;;;;;;5.07;4.72;;;25.70;99.90;;;;;;5031766;28;20652;-66
2021/08/10 12:12:52;;;;;;;5.28;4.90;;;25.50;99.90;;;;;;5032316;28;20183;-67
2021/08/10 12:15:41;;;;;;;6.07;5.63;;;25.70;99.90;;;;;;5031727;28;20578;-67
2021/08/10 12:18:06;;;;;;;5.50;5.10;;;25.20;99.90;;;;;;5032235;28;20175;-67
2021/08/10 12:20:32;;;;;;;4.68;4.38;;;25.30;99.90;;;;;;5031544;28;20258;-66
2021/08/10 12:23:06;;;;;;;5.93;5.53;;;25.60;99.90;;;;;;5032016;28;20222;-66
2021/08/10 12:25:32;;;;;;;5.20;4.80;;;26.10;99.90;;;;;;5031802;28;20549;-66
2021/08/10 12:28:01;;;;;;;5.60;5.15;;;26.20;99.90;;;;;;5032040;28;20706;-66
2021/08/10 12:30:29;;;;;;;5.53;5.03;;;26.50;99.90;;;;;;5031682;28;20183;-65
2021/08/10 12:33:10;;;;;;;5.47;5.07;;;26.60;99.90;;;;;;5030203;28;20183;-67
2021/08/10 12:35:35;;;;;;;5.30;4.90;;;26.90;99.90;;;;;;5031911;28;20202;-66
2021/08/10 12:38:02;;;;;;;5.30;4.93;;;27.20;99.90;;;;;;5031131;28;20597;-66
2021/08/10 12:40:28;;;;;;;5.95;5.47;;;27.00;99.90;;;;;;5031185;28;20168;-66
2021/08/10 12:42:54;;;;;;;5.63;5.22;;;27.10;99.90;;;;;;5031413;28;20175;-67
2021/08/10 12:45:20;;;;;;;5.28;4.90;;;27.40;99.90;;;;;;5031645;28;20555;-67
2021/08/10 12:47:45;;;;;;;7.68;4.90;;;27.40;99.90;;;;;;5031748;28;20180;-66
2021/08/10 12:50:30;;;;;;;5.80;5.32;;;27.40;99.90;;;;;;5031059;28;20262;-66